sensor_id;sensor_type;location;lat;lon;timestamp;pressure;altitude;pressure_sealevel;temperature;humidity
61906;BME280;47863;55.766;37.672;2022-09-21T00:01:04;99831.88;;;8.64;69.93
61906;BME280;47863;55.766;37.672;2022-09-21T00:03:29;99833.56;;;8.65;70.07
61906;BME280;47863;55.766;37.672;2022-09-21T00:06:00;99831.88;;;8.64;70.20
61906;BME280;47863;55.766;37.672;2022-09-21T00:08:26;99838.03;;;8.65;70.39
61906;BME280;47863;55.766;37.672;2022-09-21T00:10:51;99828.38;;;8.64;70.48
61906;BME280;47863;55.766;37.672;2022-09-21T00:13:16;99840.88;;;8.63;70.81
61906;BME280;47863;55.766;37.672;2022-09-21T00:15:43;99831.03;;;8.64;70.24
61906;BME280;47863;55.766;37.672;2022-09-21T00:18:09;99834.69;;;8.63;69.42
61906;BME280;47863;55.766;37.672;2022-09-21T00:20:34;99831.31;;;8.61;69.02
61906;BME280;47863;55.766;37.672;2022-09-21T00:23:00;99837.53;;;8.61;69.58
61906;BME280;47863;55.766;37.672;2022-09-21T00:25:25;99831.31;;;8.61;69.98
61906;BME280;47863;55.766;37.672;2022-09-21T00:27:51;99826.84;;;8.61;69.57
61906;BME280;47863;55.766;37.672;2022-09-21T00:30:18;99822.34;;;8.62;70.28
61906;BME280;47863;55.766;37.672;2022-09-21T00:32:43;99833.72;;;8.64;70.23
61906;BME280;47863;55.766;37.672;2022-09-21T00:35:08;99831.88;;;8.64;70.34
61906;BME280;47863;55.766;37.672;2022-09-21T00:37:34;99834.53;;;8.64;70.31
61906;BME280;47863;55.766;37.672;2022-09-21T00:39:59;99838.03;;;8.65;70.47
61906;BME280;47863;55.766;37.672;2022-09-21T00:42:26;99844.41;;;8.64;70.14
61906;BME280;47863;55.766;37.672;2022-09-21T00:44:52;99840.88;;;8.63;70.08
61906;BME280;47863;55.766;37.672;2022-09-21T00:47:22;99847.91;;;8.64;70.09
61906;BME280;47863;55.766;37.672;2022-09-21T00:49:51;99847.06;;;8.64;70.00
61906;BME280;47863;55.766;37.672;2022-09-21T00:52:18;99847.06;;;8.64;70.14
61906;BME280;47863;55.766;37.672;2022-09-21T00:54:46;99840.88;;;8.63;70.47
61906;BME280;47863;55.766;37.672;2022-09-21T00:57:13;99846.38;;;8.62;70.45
61906;BME280;47863;55.766;37.672;2022-09-21T00:59:39;99840.19;;;8.61;70.71
61906;BME280;47863;55.766;37.672;2022-09-21T01:02:07;99839.34;;;8.61;70.66
61906;BME280;47863;55.766;37.672;2022-09-21T01:04:33;99841.03;;;8.62;70.65
61906;BME280;47863;55.766;37.672;2022-09-21T01:06:59;99835.69;;;8.62;70.72
61906;BME280;47863;55.766;37.672;2022-09-21T01:09:26;99834.84;;;8.61;70.73
61906;BME280;47863;55.766;37.672;2022-09-21T01:12:08;99834.84;;;8.61;71.13
61906;BME280;47863;55.766;37.672;2022-09-21T01:17:23;99832.47;;;8.58;71.44
61906;BME280;47863;55.766;37.672;2022-09-21T01:25:37;99839.78;;;8.56;70.94
61906;BME280;47863;55.766;37.672;2022-09-21T01:30:33;99835.97;;;8.59;71.50
61906;BME280;47863;55.766;37.672;2022-09-21T01:35:47;99836.66;;;8.61;71.19
61906;BME280;47863;55.766;37.672;2022-09-21T01:38:30;99839.34;;;8.61;71.53
61906;BME280;47863;55.766;37.672;2022-09-21T01:40:59;99832.19;;;8.61;71.62
61906;BME280;47863;55.766;37.672;2022-09-21T01:43:29;99830.63;;;8.59;71.45
61906;BME280;47863;55.766;37.672;2022-09-21T01:45:55;99832.59;;;8.57;71.49
61906;BME280;47863;55.766;37.672;2022-09-21T01:48:26;99842.44;;;8.56;71.54
61906;BME280;47863;55.766;37.672;2022-09-21T01:50:55;99841.63;;;8.56;71.68
61906;BME280;47863;55.766;37.672;2022-09-21T01:53:31;99842.59;;;8.54;71.63
61906;BME280;47863;55.766;37.672;2022-09-21T01:56:03;99840.94;;;8.53;71.70
61906;BME280;47863;55.766;37.672;2022-09-21T01:58:30;99842.59;;;8.54;71.50
61906;BME280;47863;55.766;37.672;2022-09-21T02:00:57;99841.63;;;8.56;71.23
61906;BME280;47863;55.766;37.672;2022-09-21T02:03:28;99839.78;;;8.56;71.02
61906;BME280;47863;55.766;37.672;2022-09-21T02:05:57;99845.13;;;8.56;71.43
61906;BME280;47863;55.766;37.672;2022-09-21T02:08:23;99838.94;;;8.56;71.24
61906;BME280;47863;55.766;37.672;2022-09-21T02:10:51;99831.09;;;8.54;71.10
61906;BME280;47863;55.766;37.672;2022-09-21T02:13:17;99845.25;;;8.54;71.70
61906;BME280;47863;55.766;37.672;2022-09-21T02:18:14;99846.28;;;8.53;71.21
61906;BME280;47863;55.766;37.672;2022-09-21T02:20:45;99851.59;;;8.53;71.54
61906;BME280;47863;55.766;37.672;2022-09-21T02:23:30;99853.28;;;8.54;71.72
61906;BME280;47863;55.766;37.672;2022-09-21T02:26:14;99850.59;;;8.54;71.57
61906;BME280;47863;55.766;37.672;2022-09-21T02:31:19;99860.31;;;8.56;71.14
61906;BME280;47863;55.766;37.672;2022-09-21T02:34:15;99855.81;;;8.56;71.00
61906;BME280;47863;55.766;37.672;2022-09-21T02:39:27;99856.63;;;8.57;71.84
61906;BME280;47863;55.766;37.672;2022-09-21T02:42:08;99860.31;;;8.56;71.48
61906;BME280;47863;55.766;37.672;2022-09-21T02:49:32;99872.66;;;8.57;71.06
61906;BME280;47863;55.766;37.672;2022-09-21T02:52:00;99865.34;;;8.59;70.82
61906;BME280;47863;55.766;37.672;2022-09-21T02:54:29;99851.00;;;8.60;70.80
61906;BME280;47863;55.766;37.672;2022-09-21T02:56:57;99857.75;;;8.64;71.10
61906;BME280;47863;55.766;37.672;2022-09-21T02:59:23;99854.78;;;8.67;71.18
61906;BME280;47863;55.766;37.672;2022-09-21T03:01:50;99852.13;;;8.67;71.29
61906;BME280;47863;55.766;37.672;2022-09-21T03:04:16;99859.81;;;8.70;71.24
61906;BME280;47863;55.766;37.672;2022-09-21T03:06:41;99857.84;;;8.72;70.81
61906;BME280;47863;55.766;37.672;2022-09-21T03:09:06;99852.22;;;8.75;70.63
61906;BME280;47863;55.766;37.672;2022-09-21T03:11:32;99853.47;;;8.81;70.56
61906;BME280;47863;55.766;37.672;2022-09-21T03:14:00;99854.69;;;8.86;71.04
61906;BME280;47863;55.766;37.672;2022-09-21T03:16:26;99856.75;;;8.92;71.01
61906;BME280;47863;55.766;37.672;2022-09-21T03:18:53;99857.16;;;8.98;71.21
61906;BME280;47863;55.766;37.672;2022-09-21T03:21:18;99860.06;;;9.04;71.43
61906;BME280;47863;55.766;37.672;2022-09-21T03:23:44;99858.63;;;9.10;71.80
61906;BME280;47863;55.766;37.672;2022-09-21T03:26:09;99856.50;;;9.13;71.57
61906;BME280;47863;55.766;37.672;2022-09-21T03:28:34;99849.84;;;9.18;70.96
61906;BME280;47863;55.766;37.672;2022-09-21T03:31:00;99855.75;;;9.21;71.24
61906;BME280;47863;55.766;37.672;2022-09-21T03:33:25;99852.47;;;9.27;71.38
61906;BME280;47863;55.766;37.672;2022-09-21T03:35:51;99849.19;;;9.33;71.36
61906;BME280;47863;55.766;37.672;2022-09-21T03:38:17;99850.28;;;9.41;71.81
61906;BME280;47863;55.766;37.672;2022-09-21T03:40:45;99855.00;;;9.47;71.83
61906;BME280;47863;55.766;37.672;2022-09-21T03:43:11;99851.56;;;9.55;72.01
61906;BME280;47863;55.766;37.672;2022-09-21T03:45:37;99853.47;;;9.62;72.12
61906;BME280;47863;55.766;37.672;2022-09-21T03:48:05;99849.19;;;9.69;72.41
61906;BME280;47863;55.766;37.672;2022-09-21T03:50:30;99846.91;;;9.75;71.80
61906;BME280;47863;55.766;37.672;2022-09-21T03:52:56;99847.97;;;9.82;71.98
61906;BME280;47863;55.766;37.672;2022-09-21T03:55:21;99849.00;;;9.89;71.90
61906;BME280;47863;55.766;37.672;2022-09-21T03:57:47;99841.22;;;9.96;72.19
61906;BME280;47863;55.766;37.672;2022-09-21T04:00:13;99845.78;;;10.03;72.32
61906;BME280;47863;55.766;37.672;2022-09-21T04:02:38;99841.47;;;10.10;72.00
61906;BME280;47863;55.766;37.672;2022-09-21T04:05:05;99842.84;;;10.15;71.80
61906;BME280;47863;55.766;37.672;2022-09-21T04:07:31;99846.72;;;10.20;72.00
61906;BME280;47863;55.766;37.672;2022-09-21T04:09:58;99853.31;;;10.26;72.19
61906;BME280;47863;55.766;37.672;2022-09-21T04:12:24;99856.38;;;10.31;71.37
61906;BME280;47863;55.766;37.672;2022-09-21T04:14:49;99849.88;;;10.34;71.59
61906;BME280;47863;55.766;37.672;2022-09-21T04:17:15;99847.56;;;10.39;71.35
61906;BME280;47863;55.766;37.672;2022-09-21T04:19:40;99856.78;;;10.44;71.45
61906;BME280;47863;55.766;37.672;2022-09-21T04:22:06;99857.16;;;10.49;71.49
61906;BME280;47863;55.766;37.672;2022-09-21T04:24:32;99847.81;;;10.54;71.00
61906;BME280;47863;55.766;37.672;2022-09-21T04:26:57;99852.66;;;10.58;71.85
61906;BME280;47863;55.766;37.672;2022-09-21T04:29:22;99843.16;;;10.64;71.69
61906;BME280;47863;55.766;37.672;2022-09-21T04:31:48;99844.34;;;10.69;70.80
61906;BME280;47863;55.766;37.672;2022-09-21T04:34:13;99843.72;;;10.76;71.53
61906;BME280;47863;55.766;37.672;2022-09-21T04:36:39;99842.22;;;10.81;71.64
61906;BME280;47863;55.766;37.672;2022-09-21T04:39:04;99843.28;;;10.88;71.99
61906;BME280;47863;55.766;37.672;2022-09-21T04:41:30;99852.31;;;10.96;72.14
61906;BME280;47863;55.766;37.672;2022-09-21T04:43:55;99848.31;;;11.00;72.06
61906;BME280;47863;55.766;37.672;2022-09-21T04:46:21;99857.75;;;11.04;71.86
61906;BME280;47863;55.766;37.672;2022-09-21T04:48:46;99858.06;;;11.09;71.24
61906;BME280;47863;55.766;37.672;2022-09-21T04:51:12;99866.78;;;11.11;71.67
61906;BME280;47863;55.766;37.672;2022-09-21T04:53:39;99869.16;;;11.14;71.89
61906;BME280;47863;55.766;37.672;2022-09-21T04:56:05;99868.66;;;11.19;71.30
61906;BME280;47863;55.766;37.672;2022-09-21T04:58:31;99869.03;;;11.24;70.54
61906;BME280;47863;55.766;37.672;2022-09-21T05:00:57;99866.00;;;11.27;71.31
61906;BME280;47863;55.766;37.672;2022-09-21T05:03:23;99870.38;;;11.28;71.12
61906;BME280;47863;55.766;37.672;2022-09-21T05:05:49;99866.53;;;11.30;71.10
61906;BME280;47863;55.766;37.672;2022-09-21T05:08:15;99839.81;;;11.13;69.99
61906;BME280;47863;55.766;37.672;2022-09-21T05:10:40;99880.28;;;11.36;70.75
61906;BME280;47863;55.766;37.672;2022-09-21T05:13:06;99877.25;;;11.39;70.62
61906;BME280;47863;55.766;37.672;2022-09-21T05:15:31;99867.72;;;11.44;70.68
61906;BME280;47863;55.766;37.672;2022-09-21T05:17:56;99865.03;;;11.52;70.61
61906;BME280;47863;55.766;37.672;2022-09-21T05:20:22;99871.09;;;11.63;70.08
61906;BME280;47863;55.766;37.672;2022-09-21T05:22:47;99863.22;;;11.78;70.10
61906;BME280;47863;55.766;37.672;2022-09-21T05:25:13;99867.78;;;11.94;69.38
61906;BME280;47863;55.766;37.672;2022-09-21T05:27:38;99875.66;;;12.12;69.90
61906;BME280;47863;55.766;37.672;2022-09-21T05:30:04;99870.09;;;12.29;70.49
61906;BME280;47863;55.766;37.672;2022-09-21T05:40:05;99862.00;;;13.02;69.02
61906;BME280;47863;55.766;37.672;2022-09-21T05:42:31;99864.94;;;13.23;69.00
61906;BME280;47863;55.766;37.672;2022-09-21T05:44:57;99856.22;;;13.44;68.62
61906;BME280;47863;55.766;37.672;2022-09-21T05:47:36;99849.72;;;13.62;70.34
61906;BME280;47863;55.766;37.672;2022-09-21T06:00:30;99851.09;;;14.19;68.38
61906;BME280;47863;55.766;37.672;2022-09-21T06:03:09;99841.94;;;14.28;69.06
61906;BME280;47863;55.766;37.672;2022-09-21T06:05:38;99848.91;;;14.37;68.43
61906;BME280;47863;55.766;37.672;2022-09-21T06:08:04;99853.53;;;14.43;68.45
61906;BME280;47863;55.766;37.672;2022-09-21T06:10:31;99857.19;;;14.51;67.79
61906;BME280;47863;55.766;37.672;2022-09-21T06:12:57;99860.69;;;14.59;68.05
61906;BME280;47863;55.766;37.672;2022-09-21T06:15:23;99857.03;;;14.67;67.29
61906;BME280;47863;55.766;37.672;2022-09-21T06:17:48;99852.22;;;14.77;67.61
61906;BME280;47863;55.766;37.672;2022-09-21T06:20:13;99861.09;;;14.93;67.62
61906;BME280;47863;55.766;37.672;2022-09-21T06:22:39;99858.41;;;15.07;67.17
61906;BME280;47863;55.766;37.672;2022-09-21T06:25:04;99864.59;;;15.23;67.51
61906;BME280;47863;55.766;37.672;2022-09-21T06:27:30;99854.41;;;15.40;67.54
61906;BME280;47863;55.766;37.672;2022-09-21T06:29:55;99865.22;;;15.61;67.34
61906;BME280;47863;55.766;37.672;2022-09-21T06:32:21;99863.00;;;15.86;67.62
61906;BME280;47863;55.766;37.672;2022-09-21T06:34:46;99864.53;;;16.17;66.57
61906;BME280;47863;55.766;37.672;2022-09-21T06:37:12;99857.94;;;16.55;67.25
61906;BME280;47863;55.766;37.672;2022-09-21T06:39:37;99860.13;;;17.14;66.99
61906;BME280;47863;55.766;37.672;2022-09-21T06:42:02;99858.25;;;17.96;67.47
61906;BME280;47863;55.766;37.672;2022-09-21T06:44:28;99860.88;;;18.76;65.91
61906;BME280;47863;55.766;37.672;2022-09-21T06:46:54;99856.47;;;19.40;64.46
61906;BME280;47863;55.766;37.672;2022-09-21T06:49:20;99857.53;;;19.78;60.67
61906;BME280;47863;55.766;37.672;2022-09-21T06:51:49;99861.16;;;19.97;57.47
61906;BME280;47863;55.766;37.672;2022-09-21T06:54:14;99854.66;;;20.23;57.36
61906;BME280;47863;55.766;37.672;2022-09-21T06:56:39;99865.63;;;20.35;60.79
61906;BME280;47863;55.766;37.672;2022-09-21T06:59:07;99867.44;;;20.23;60.20
61906;BME280;47863;55.766;37.672;2022-09-21T07:01:33;99862.66;;;19.93;54.23
61906;BME280;47863;55.766;37.672;2022-09-21T07:03:58;99865.28;;;19.68;52.49
61906;BME280;47863;55.766;37.672;2022-09-21T07:06:23;99865.41;;;19.48;54.06
61906;BME280;47863;55.766;37.672;2022-09-21T07:08:52;99855.22;;;19.36;55.15
61906;BME280;47863;55.766;37.672;2022-09-21T07:11:20;99863.59;;;19.35;55.08
61906;BME280;47863;55.766;37.672;2022-09-21T07:13:48;99859.66;;;19.31;53.17
61906;BME280;47863;55.766;37.672;2022-09-21T07:16:13;99863.84;;;19.27;51.82
61906;BME280;47863;55.766;37.672;2022-09-21T07:18:39;99865.53;;;19.28;56.14
61906;BME280;47863;55.766;37.672;2022-09-21T07:21:05;99865.06;;;19.31;56.84
61906;BME280;47863;55.766;37.672;2022-09-21T07:23:31;99864.81;;;19.39;51.56
61906;BME280;47863;55.766;37.672;2022-09-21T07:25:59;99869.16;;;19.53;55.53
61906;BME280;47863;55.766;37.672;2022-09-21T07:28:25;99872.00;;;19.72;56.69
61906;BME280;47863;55.766;37.672;2022-09-21T07:30:50;99864.63;;;20.04;56.70
61906;BME280;47863;55.766;37.672;2022-09-21T07:33:16;99867.28;;;20.61;58.29
61906;BME280;47863;55.766;37.672;2022-09-21T07:35:49;99864.81;;;21.15;46.09
61906;BME280;47863;55.766;37.672;2022-09-21T07:38:14;99863.75;;;21.65;51.35
61906;BME280;47863;55.766;37.672;2022-09-21T07:40:39;99865.03;;;22.04;53.83
61906;BME280;47863;55.766;37.672;2022-09-21T07:43:05;99869.38;;;22.35;50.41
61906;BME280;47863;55.766;37.672;2022-09-21T07:45:31;99859.88;;;22.50;54.64
61906;BME280;47863;55.766;37.672;2022-09-21T07:48:03;99866.38;;;22.37;48.68
61906;BME280;47863;55.766;37.672;2022-09-21T07:50:28;99869.66;;;22.15;50.62
61906;BME280;47863;55.766;37.672;2022-09-21T07:52:54;99870.84;;;21.96;50.95
61906;BME280;47863;55.766;37.672;2022-09-21T07:55:19;99865.09;;;21.86;45.28
61906;BME280;47863;55.766;37.672;2022-09-21T07:57:44;99866.56;;;21.88;47.33
61906;BME280;47863;55.766;37.672;2022-09-21T08:00:28;99867.50;;;21.82;49.55
61906;BME280;47863;55.766;37.672;2022-09-21T08:02:58;99869.59;;;21.68;50.21
61906;BME280;47863;55.766;37.672;2022-09-21T08:05:25;99861.44;;;21.50;48.01
61906;BME280;47863;55.766;37.672;2022-09-21T08:07:53;99861.69;;;21.30;50.58
61906;BME280;47863;55.766;37.672;2022-09-21T08:10:19;99860.63;;;21.12;51.02
61906;BME280;47863;55.766;37.672;2022-09-21T08:12:44;99855.28;;;20.87;47.50
61906;BME280;47863;55.766;37.672;2022-09-21T08:15:11;99862.06;;;20.59;47.93
61906;BME280;47863;55.766;37.672;2022-09-21T08:17:37;99866.22;;;20.18;51.14
61906;BME280;47863;55.766;37.672;2022-09-21T08:20:02;99859.22;;;19.72;50.40
61906;BME280;47863;55.766;37.672;2022-09-21T08:22:28;99859.00;;;19.35;48.55
61906;BME280;47863;55.766;37.672;2022-09-21T08:24:54;99854.16;;;19.06;57.59
61906;BME280;47863;55.766;37.672;2022-09-21T08:27:20;99859.44;;;18.67;53.27
61906;BME280;47863;55.766;37.672;2022-09-21T08:29:45;99863.66;;;18.36;51.50
61906;BME280;47863;55.766;37.672;2022-09-21T08:32:10;99856.16;;;18.12;52.62
61906;BME280;47863;55.766;37.672;2022-09-21T08:34:36;99857.00;;;17.92;52.48
61906;BME280;47863;55.766;37.672;2022-09-21T08:37:01;99851.53;;;17.79;54.46
61906;BME280;47863;55.766;37.672;2022-09-21T08:39:27;99862.38;;;17.72;55.63
61906;BME280;47863;55.766;37.672;2022-09-21T08:44:54;99853.03;;;17.95;58.49
61906;BME280;47863;55.766;37.672;2022-09-21T08:47:24;99850.25;;;18.68;54.08
61906;BME280;47863;55.766;37.672;2022-09-21T08:49:54;99851.66;;;19.42;55.02
61906;BME280;47863;55.766;37.672;2022-09-21T08:52:21;99853.28;;;19.89;53.11
61906;BME280;47863;55.766;37.672;2022-09-21T08:57:33;99826.53;;;20.11;52.04
61906;BME280;47863;55.766;37.672;2022-09-21T09:00:01;99836.34;;;20.12;51.88
61906;BME280;47863;55.766;37.672;2022-09-21T09:02:32;99830.84;;;20.18;48.24
61906;BME280;47863;55.766;37.672;2022-09-21T09:12:50;99840.19;;;20.48;48.44
61906;BME280;47863;55.766;37.672;2022-09-21T09:15:36;99834.75;;;20.48;49.46
61906;BME280;47863;55.766;37.672;2022-09-21T09:20:55;99830.75;;;20.07;55.29
61906;BME280;47863;55.766;37.672;2022-09-21T09:23:23;99825.97;;;19.77;56.83
61906;BME280;47863;55.766;37.672;2022-09-21T09:25:50;99832.41;;;19.44;54.97
61906;BME280;47863;55.766;37.672;2022-09-21T09:30:59;99808.63;;;19.01;57.61
61906;BME280;47863;55.766;37.672;2022-09-21T09:33:30;99814.97;;;18.88;55.00
61906;BME280;47863;55.766;37.672;2022-09-21T09:36:02;99818.91;;;18.86;55.84
61906;BME280;47863;55.766;37.672;2022-09-21T09:38:43;99821.41;;;18.87;56.36
61906;BME280;47863;55.766;37.672;2022-09-21T09:49:32;99815.94;;;19.39;54.23
61906;BME280;47863;55.766;37.672;2022-09-21T09:51:38;99817.75;;;19.84;53.05
61906;BME280;47863;55.766;37.672;2022-09-21T09:54:04;99827.03;;;20.26;50.59
61906;BME280;47863;55.766;37.672;2022-09-21T09:56:36;99812.03;;;20.79;50.65
61906;BME280;47863;55.766;37.672;2022-09-21T09:59:02;99817.72;;;21.26;45.50
61906;BME280;47863;55.766;37.672;2022-09-21T10:01:43;99811.03;;;21.71;48.91
61906;BME280;47863;55.766;37.672;2022-09-21T10:04:13;99821.41;;;22.04;45.53
61906;BME280;47863;55.766;37.672;2022-09-21T10:06:38;99814.25;;;22.74;45.18
61906;BME280;47863;55.766;37.672;2022-09-21T10:09:17;99822.78;;;23.75;47.36
61906;BME280;47863;55.766;37.672;2022-09-21T10:11:43;99816.31;;;25.10;41.17
61906;BME280;47863;55.766;37.672;2022-09-21T10:14:11;99809.91;;;26.56;37.89
61906;BME280;47863;55.766;37.672;2022-09-21T10:16:40;99819.13;;;27.86;41.59
61906;BME280;47863;55.766;37.672;2022-09-21T10:19:10;99816.91;;;28.29;33.71
61906;BME280;47863;55.766;37.672;2022-09-21T10:21:38;99817.75;;;27.84;34.00
61906;BME280;47863;55.766;37.672;2022-09-21T10:24:06;99807.69;;;27.06;32.35
61906;BME280;47863;55.766;37.672;2022-09-21T10:34:23;99798.88;;;23.08;44.49
61906;BME280;47863;55.766;37.672;2022-09-21T10:36:53;99802.56;;;22.38;41.42
61906;BME280;47863;55.766;37.672;2022-09-21T10:44:14;99796.16;;;20.94;44.36
61906;BME280;47863;55.766;37.672;2022-09-21T10:46:41;99804.25;;;20.64;45.81
61906;BME280;47863;55.766;37.672;2022-09-21T10:49:12;99800.13;;;20.55;45.89
61906;BME280;47863;55.766;37.672;2022-09-21T10:51:39;99790.56;;;20.89;46.97
61906;BME280;47863;55.766;37.672;2022-09-21T10:54:07;99799.47;;;21.27;47.52
61906;BME280;47863;55.766;37.672;2022-09-21T10:56:33;99792.38;;;21.26;44.09
61906;BME280;47863;55.766;37.672;2022-09-21T10:59:09;99798.81;;;21.01;46.38
61906;BME280;47863;55.766;37.672;2022-09-21T11:01:35;99797.09;;;20.70;47.30
61906;BME280;47863;55.766;37.672;2022-09-21T11:04:18;99797.72;;;20.47;46.92
61906;BME280;47863;55.766;37.672;2022-09-21T11:06:45;99803.19;;;20.21;50.57
61906;BME280;47863;55.766;37.672;2022-09-21T11:16:53;99803.75;;;19.16;47.42
61906;BME280;47863;55.766;37.672;2022-09-21T11:22:24;99793.66;;;18.72;48.27
61906;BME280;47863;55.766;37.672;2022-09-21T11:27:12;99787.31;;;18.39;53.30
61906;BME280;47863;55.766;37.672;2022-09-21T11:29:47;99793.59;;;18.20;51.68
61906;BME280;47863;55.766;37.672;2022-09-21T11:34:53;99791.94;;;17.99;53.94
61906;BME280;47863;55.766;37.672;2022-09-21T11:40:55;99780.50;;;17.83;53.21
61906;BME280;47863;55.766;37.672;2022-09-21T11:48:10;99776.50;;;17.73;52.17
61906;BME280;47863;55.766;37.672;2022-09-21T12:01:06;99769.84;;;17.62;53.41
61906;BME280;47863;55.766;37.672;2022-09-21T12:03:48;99772.56;;;17.62;53.64
61906;BME280;47863;55.766;37.672;2022-09-21T12:06:32;99769.19;;;17.53;53.27
61906;BME280;47863;55.766;37.672;2022-09-21T12:21:48;99775.63;;;16.71;54.65
61906;BME280;47863;55.766;37.672;2022-09-21T12:24:20;99771.59;;;16.53;54.18
61906;BME280;47863;55.766;37.672;2022-09-21T12:26:48;99762.78;;;16.38;54.10
61906;BME280;47863;55.766;37.672;2022-09-21T12:29:17;99766.03;;;16.26;55.05
61906;BME280;47863;55.766;37.672;2022-09-21T12:34:31;99767.81;;;16.13;55.87
61906;BME280;47863;55.766;37.672;2022-09-21T12:37:00;99766.53;;;16.09;56.04
61906;BME280;47863;55.766;37.672;2022-09-21T12:39:31;99765.28;;;16.04;55.85
61906;BME280;47863;55.766;37.672;2022-09-21T12:42:06;99759.63;;;15.99;56.48
61906;BME280;47863;55.766;37.672;2022-09-21T12:44:35;99762.28;;;15.93;56.17
61906;BME280;47863;55.766;37.672;2022-09-21T12:50:04;99754.06;;;15.79;57.02
61906;BME280;47863;55.766;37.672;2022-09-21T12:52:30;99765.66;;;15.73;56.80
61906;BME280;47863;55.766;37.672;2022-09-21T12:55:03;99776.19;;;15.68;56.76
61906;BME280;47863;55.766;37.672;2022-09-21T13:00:17;99762.38;;;15.56;56.96
61906;BME280;47863;55.766;37.672;2022-09-21T13:10:15;99766.75;;;15.36;57.61
61906;BME280;47863;55.766;37.672;2022-09-21T13:12:43;99765.28;;;15.33;58.20
61906;BME280;47863;55.766;37.672;2022-09-21T13:17:38;99762.59;;;15.33;58.03
61906;BME280;47863;55.766;37.672;2022-09-21T13:20:05;99759.88;;;15.33;58.00
61906;BME280;47863;55.766;37.672;2022-09-21T13:22:39;99761.53;;;15.34;58.06
61906;BME280;47863;55.766;37.672;2022-09-21T13:25:05;99766.94;;;15.34;57.94
61906;BME280;47863;55.766;37.672;2022-09-21T13:30:21;99754.75;;;15.38;58.16
61906;BME280;47863;55.766;37.672;2022-09-21T13:32:52;99757.88;;;15.42;58.43
61906;BME280;47863;55.766;37.672;2022-09-21T13:38:22;99749.22;;;15.46;58.14
61906;BME280;47863;55.766;37.672;2022-09-21T13:40:48;99743.59;;;15.48;58.32
61906;BME280;47863;55.766;37.672;2022-09-21T13:43:20;99735.72;;;15.46;58.16
61906;BME280;47863;55.766;37.672;2022-09-21T13:45:49;99736.09;;;15.43;58.32
61906;BME280;47863;55.766;37.672;2022-09-21T13:48:19;99739.63;;;15.44;58.23
61906;BME280;47863;55.766;37.672;2022-09-21T13:50:50;99748.34;;;15.46;58.30
61906;BME280;47863;55.766;37.672;2022-09-21T13:53:17;99750.03;;;15.47;58.82
61906;BME280;47863;55.766;37.672;2022-09-21T13:55:53;99718.13;;;15.29;58.54
61906;BME280;47863;55.766;37.672;2022-09-21T13:58:28;99750.03;;;15.47;58.61
61906;BME280;47863;55.766;37.672;2022-09-21T14:00:55;99750.03;;;15.47;58.45
61906;BME280;47863;55.766;37.672;2022-09-21T14:03:25;99746.69;;;15.45;58.44
61906;BME280;47863;55.766;37.672;2022-09-21T14:05:53;99747.53;;;15.45;58.56
61906;BME280;47863;55.766;37.672;2022-09-21T14:08:21;99735.72;;;15.46;58.48
61906;BME280;47863;55.766;37.672;2022-09-21T14:13:25;99744.00;;;15.45;58.80
61906;BME280;47863;55.766;37.672;2022-09-21T14:15:51;99747.72;;;15.44;58.91
61906;BME280;47863;55.766;37.672;2022-09-21T14:18:18;99740.66;;;15.43;58.80
61906;BME280;47863;55.766;37.672;2022-09-21T14:23:27;99742.09;;;15.39;58.86
61906;BME280;47863;55.766;37.672;2022-09-21T14:28:41;99739.53;;;15.31;58.91
61906;BME280;47863;55.766;37.672;2022-09-21T14:31:21;99746.72;;;15.23;58.99
61906;BME280;47863;55.766;37.672;2022-09-21T14:33:55;99738.56;;;15.17;58.91
61906;BME280;47863;55.766;37.672;2022-09-21T14:36:23;99741.81;;;15.12;59.46
61906;BME280;47863;55.766;37.672;2022-09-21T14:38:55;99741.75;;;15.05;59.40
61906;BME280;47863;55.766;37.672;2022-09-21T14:41:25;99741.69;;;14.99;59.60
61906;BME280;47863;55.766;37.672;2022-09-21T14:43:52;99745.78;;;14.95;59.08
61906;BME280;47863;55.766;37.672;2022-09-21T14:56:26;99749.84;;;14.69;59.77
61906;BME280;47863;55.766;37.672;2022-09-21T15:01:37;99744.44;;;14.54;60.64
61906;BME280;47863;55.766;37.672;2022-09-21T15:11:58;99750.69;;;14.25;61.07
61906;BME280;47863;55.766;37.672;2022-09-21T15:16:57;99755.88;;;14.12;61.63
61906;BME280;47863;55.766;37.672;2022-09-21T15:19:23;99763.53;;;14.08;62.33
61906;BME280;47863;55.766;37.672;2022-09-21T15:24:34;99762.41;;;14.02;61.72
61906;BME280;47863;55.766;37.672;2022-09-21T15:27:01;99761.75;;;14.00;62.32
61906;BME280;47863;55.766;37.672;2022-09-21T15:29:29;99771.22;;;13.96;62.81
61906;BME280;47863;55.766;37.672;2022-09-21T15:31:55;99764.53;;;13.92;62.60
61906;BME280;47863;55.766;37.672;2022-09-21T15:34:21;99772.31;;;13.87;62.39
61906;BME280;47863;55.766;37.672;2022-09-21T15:36:47;99757.72;;;13.81;64.20
61906;BME280;47863;55.766;37.672;2022-09-21T15:39:49;99766.34;;;13.77;63.32
61906;BME280;47863;55.766;37.672;2022-09-21T15:44:33;99770.78;;;13.69;63.63
61906;BME280;47863;55.766;37.672;2022-09-21T15:46:58;99772.81;;;13.67;63.17
61906;BME280;47863;55.766;37.672;2022-09-21T15:49:27;99774.84;;;13.65;63.50
61906;BME280;47863;55.766;37.672;2022-09-21T15:54:29;99775.69;;;13.66;61.84
61906;BME280;47863;55.766;37.672;2022-09-21T15:56:59;99780.22;;;13.65;62.05
61906;BME280;47863;55.766;37.672;2022-09-21T15:59:25;99778.53;;;13.64;61.85
61906;BME280;47863;55.766;37.672;2022-09-21T16:01:52;99781.22;;;13.64;61.68
61906;BME280;47863;55.766;37.672;2022-09-21T16:04:20;99790.34;;;13.63;61.64
61906;BME280;47863;55.766;37.672;2022-09-21T16:06:47;99790.34;;;13.63;61.42
61906;BME280;47863;55.766;37.672;2022-09-21T16:11:56;99793.13;;;13.70;62.12
61906;BME280;47863;55.766;37.672;2022-09-21T16:14:22;99806.06;;;13.75;61.32